sensor_id;sensor_type;location;lat;lon;timestamp;pressure;altitude;pressure_sealevel;temperature;humidity
77171;BME280;66144;50.020;14.422;2023-02-12T00:00:35;100539.69;;;6.43;71.19
77171;BME280;66144;50.020;14.422;2023-02-12T00:03:01;100546.84;;;6.41;70.90
77171;BME280;66144;50.020;14.422;2023-02-12T00:05:26;100547.09;;;6.31;70.99
77171;BME280;66144;50.020;14.422;2023-02-12T00:07:52;100541.59;;;6.26;71.54
77171;BME280;66144;50.020;14.422;2023-02-12T00:10:17;100541.66;;;6.18;71.08
77171;BME280;66144;50.020;14.422;2023-02-12T00:12:43;100548.91;;;6.22;71.32
77171;BME280;66144;50.020;14.422;2023-02-12T00:15:08;100540.03;;;6.17;71.03
77171;BME280;66144;50.020;14.422;2023-02-12T00:17:34;100533.44;;;6.14;71.23
77171;BME280;66144;50.020;14.422;2023-02-12T00:19:59;100535.25;;;6.06;71.90
77171;BME280;66144;50.020;14.422;2023-02-12T00:22:24;100532.34;;;6.09;71.91
77171;BME280;66144;50.020;14.422;2023-02-12T00:24:50;100528.81;;;6.02;71.70
77171;BME280;66144;50.020;14.422;2023-02-12T00:27:15;100531.22;;;6.03;71.84
77171;BME280;66144;50.020;14.422;2023-02-12T00:29:40;100527.81;;;6.03;71.89
77171;BME280;66144;50.020;14.422;2023-02-12T00:32:06;100534.00;;;6.02;72.28
77171;BME280;66144;50.020;14.422;2023-02-12T00:34:32;100528.47;;;6.05;72.38
77171;BME280;66144;50.020;14.422;2023-02-12T00:36:57;100542.56;;;6.02;72.34
77171;BME280;66144;50.020;14.422;2023-02-12T00:39:22;100539.00;;;6.03;72.01
77171;BME280;66144;50.020;14.422;2023-02-12T00:41:48;100543.47;;;5.95;72.00
77171;BME280;66144;50.020;14.422;2023-02-12T00:44:13;100541.66;;;5.95;71.69
77171;BME280;66144;50.020;14.422;2023-02-12T00:46:38;100542.00;;;5.84;72.80
77171;BME280;66144;50.020;14.422;2023-02-12T00:49:04;100548.47;;;5.88;72.85
77171;BME280;66144;50.020;14.422;2023-02-12T00:51:29;100540.41;;;5.83;73.13
77171;BME280;66144;50.020;14.422;2023-02-12T00:53:54;100545.41;;;5.84;72.83
77171;BME280;66144;50.020;14.422;2023-02-12T00:56:20;100552.84;;;5.87;73.01
77171;BME280;66144;50.020;14.422;2023-02-12T00:58:45;100549.16;;;5.82;73.31
77171;BME280;66144;50.020;14.422;2023-02-12T01:01:10;100549.66;;;5.77;73.38
77171;BME280;66144;50.020;14.422;2023-02-12T01:03:36;100554.34;;;5.82;72.89
77171;BME280;66144;50.020;14.422;2023-02-12T01:06:02;100556.94;;;5.82;72.94
77171;BME280;66144;50.020;14.422;2023-02-12T01:08:28;100563.91;;;5.81;73.31
77171;BME280;66144;50.020;14.422;2023-02-12T01:10:56;100552.38;;;5.84;73.51
77171;BME280;66144;50.020;14.422;2023-02-12T01:13:22;100559.19;;;5.85;73.26
77171;BME280;66144;50.020;14.422;2023-02-12T01:15:51;100555.63;;;5.86;73.06
77171;BME280;66144;50.020;14.422;2023-02-12T01:18:24;100559.53;;;5.82;72.93
77171;BME280;66144;50.020;14.422;2023-02-12T01:20:50;100557.22;;;5.87;72.81
77171;BME280;66144;50.020;14.422;2023-02-12T01:23:15;100564.06;;;5.80;73.64
77171;BME280;66144;50.020;14.422;2023-02-12T01:25:41;100561.94;;;5.83;72.87
77171;BME280;66144;50.020;14.422;2023-02-12T01:28:07;100567.59;;;5.87;72.90
77171;BME280;66144;50.020;14.422;2023-02-12T01:30:33;100562.41;;;5.87;72.79
77171;BME280;66144;50.020;14.422;2023-02-12T01:32:58;100571.97;;;5.86;73.12
77171;BME280;66144;50.020;14.422;2023-02-12T01:35:24;100573.13;;;5.84;73.34
77171;BME280;66144;50.020;14.422;2023-02-12T01:37:50;100571.69;;;5.89;73.63
77171;BME280;66144;50.020;14.422;2023-02-12T01:40:15;100572.78;;;5.87;73.92
77171;BME280;66144;50.020;14.422;2023-02-12T01:42:41;100567.31;;;5.90;73.64
77171;BME280;66144;50.020;14.422;2023-02-12T01:47:40;100576.53;;;5.93;73.85
77171;BME280;66144;50.020;14.422;2023-02-12T01:50:15;100577.00;;;5.96;73.69
77171;BME280;66144;50.020;14.422;2023-02-12T01:52:49;100580.91;;;5.92;74.07
77171;BME280;66144;50.020;14.422;2023-02-12T01:55:16;100573.78;;;5.94;73.69
77171;BME280;66144;50.020;14.422;2023-02-12T01:57:44;100575.72;;;5.92;73.77
77171;BME280;66144;50.020;14.422;2023-02-12T02:00:23;100578.94;;;5.94;73.17
77171;BME280;66144;50.020;14.422;2023-02-12T02:02:50;100584.13;;;5.94;73.82
77171;BME280;66144;50.020;14.422;2023-02-12T02:05:27;100584.13;;;5.94;73.59
77171;BME280;66144;50.020;14.422;2023-02-12T02:07:55;100588.53;;;5.94;73.24
77171;BME280;66144;50.020;14.422;2023-02-12T02:10:20;100590.31;;;5.85;73.95
77171;BME280;66144;50.020;14.422;2023-02-12T02:12:45;100585.75;;;5.87;74.13
77171;BME280;66144;50.020;14.422;2023-02-12T02:15:30;100576.06;;;5.89;73.40
77171;BME280;66144;50.020;14.422;2023-02-12T02:18:01;100574.75;;;5.85;73.40
77171;BME280;66144;50.020;14.422;2023-02-12T02:29:05;100590.31;;;5.85;73.09
77171;BME280;66144;50.020;14.422;2023-02-12T02:31:45;100583.97;;;5.87;73.95
77171;BME280;66144;50.020;14.422;2023-02-12T02:36:49;100583.50;;;5.92;72.90
77171;BME280;66144;50.020;14.422;2023-02-12T02:39:29;100592.25;;;5.91;73.52
77171;BME280;66144;50.020;14.422;2023-02-12T02:42:07;100590.31;;;5.93;73.40
77171;BME280;66144;50.020;14.422;2023-02-12T02:44:38;100597.09;;;5.94;73.67
77171;BME280;66144;50.020;14.422;2023-02-12T02:47:09;100592.72;;;5.95;72.99
77171;BME280;66144;50.020;14.422;2023-02-12T02:49:45;100584.94;;;5.95;72.84
77171;BME280;66144;50.020;14.422;2023-02-12T02:52:21;100589.66;;;5.91;72.87
77171;BME280;66144;50.020;14.422;2023-02-12T02:54:52;100586.09;;;5.92;72.76
77171;BME280;66144;50.020;14.422;2023-02-12T02:57:26;100595.81;;;5.90;73.00
77171;BME280;66144;50.020;14.422;2023-02-12T02:59:59;100597.91;;;5.86;73.49
77171;BME280;66144;50.020;14.422;2023-02-12T03:02:31;100594.34;;;5.87;72.98
77171;BME280;66144;50.020;14.422;2023-02-12T03:05:29;100595.16;;;5.88;73.66
77171;BME280;66144;50.020;14.422;2023-02-12T03:08:04;100597.13;;;5.78;73.54
77171;BME280;66144;50.020;14.422;2023-02-12T03:13:36;100613.16;;;5.81;73.23
77171;BME280;66144;50.020;14.422;2023-02-12T03:16:09;100616.09;;;5.78;73.39
77171;BME280;66144;50.020;14.422;2023-02-12T03:18:41;100614.94;;;5.81;73.36
77171;BME280;66144;50.020;14.422;2023-02-12T03:21:14;100618.69;;;5.78;73.17
77171;BME280;66144;50.020;14.422;2023-02-12T03:23:48;100626.13;;;5.81;73.71
77171;BME280;66144;50.020;14.422;2023-02-12T03:26:23;100631.31;;;5.81;73.29
77171;BME280;66144;50.020;14.422;2023-02-12T03:28:50;100624.34;;;5.82;73.43
77171;BME280;66144;50.020;14.422;2023-02-12T03:31:37;100628.56;;;5.83;73.74
77171;BME280;66144;50.020;14.422;2023-02-12T03:34:29;100631.78;;;5.85;73.90
77171;BME280;66144;50.020;14.422;2023-02-12T03:37:09;100629.19;;;5.85;73.59
77171;BME280;66144;50.020;14.422;2023-02-12T03:42:12;100634.38;;;5.85;73.84
77171;BME280;66144;50.020;14.422;2023-02-12T03:44:42;100633.56;;;5.84;73.45
77171;BME280;66144;50.020;14.422;2023-02-12T03:52:34;100641.50;;;5.83;74.05
77171;BME280;66144;50.020;14.422;2023-02-12T03:55:00;100640.38;;;5.85;73.48
77171;BME280;66144;50.020;14.422;2023-02-12T03:57:29;100648.97;;;5.86;73.38
77171;BME280;66144;50.020;14.422;2023-02-12T03:59:57;100647.34;;;5.85;73.82
77171;BME280;66144;50.020;14.422;2023-02-12T04:02:25;100649.28;;;5.83;73.58
77171;BME280;66144;50.020;14.422;2023-02-12T04:04:51;100656.44;;;5.81;73.31
77171;BME280;66144;50.020;14.422;2023-02-12T04:07:16;100666.16;;;5.79;73.20
77171;BME280;66144;50.020;14.422;2023-02-12T04:09:42;100658.44;;;5.71;73.97
77171;BME280;66144;50.020;14.422;2023-02-12T04:15:14;100669.72;;;5.78;73.55
77171;BME280;66144;50.020;14.422;2023-02-12T04:20:42;100670.91;;;5.67;73.98
77171;BME280;66144;50.020;14.422;2023-02-12T04:26:09;100678.88;;;5.58;74.21
77171;BME280;66144;50.020;14.422;2023-02-12T04:31:32;100682.41;;;5.65;73.67
77171;BME280;66144;50.020;14.422;2023-02-12T04:36:35;100693.09;;;5.62;73.58
77171;BME280;66144;50.020;14.422;2023-02-12T04:39:07;100691.16;;;5.64;73.58
77171;BME280;66144;50.020;14.422;2023-02-12T04:41:37;100691.16;;;5.64;73.63
77171;BME280;66144;50.020;14.422;2023-02-12T04:46:40;100694.25;;;5.59;73.41
77171;BME280;66144;50.020;14.422;2023-02-12T04:49:05;100693.16;;;5.53;74.10
77171;BME280;66144;50.020;14.422;2023-02-12T04:51:31;100704.63;;;5.59;73.67
77171;BME280;66144;50.020;14.422;2023-02-12T04:53:56;100698.81;;;5.57;73.75
77171;BME280;66144;50.020;14.422;2023-02-12T04:56:21;100697.34;;;5.54;73.93
77171;BME280;66144;50.020;14.422;2023-02-12T04:58:47;100695.41;;;5.57;73.58
77171;BME280;66144;50.020;14.422;2023-02-12T05:01:12;100704.97;;;5.56;73.83
77171;BME280;66144;50.020;14.422;2023-02-12T05:03:37;100707.72;;;5.54;73.79
77171;BME280;66144;50.020;14.422;2023-02-12T05:06:05;100700.91;;;5.53;73.67
77171;BME280;66144;50.020;14.422;2023-02-12T05:08:31;100705.47;;;5.51;73.88
77171;BME280;66144;50.020;14.422;2023-02-12T05:10:56;100697.84;;;5.50;74.02
77171;BME280;66144;50.020;14.422;2023-02-12T05:13:21;100694.13;;;5.44;74.32
77171;BME280;66144;50.020;14.422;2023-02-12T05:15:46;100703.34;;;5.47;74.32
77171;BME280;66144;50.020;14.422;2023-02-12T05:18:12;100703.19;;;5.48;73.98
77171;BME280;66144;50.020;14.422;2023-02-12T05:20:37;100710.81;;;5.50;74.33
77171;BME280;66144;50.020;14.422;2023-02-12T05:23:02;100710.00;;;5.49;74.58
77171;BME280;66144;50.020;14.422;2023-02-12T05:25:28;100715.19;;;5.41;74.25
77171;BME280;66144;50.020;14.422;2023-02-12T05:27:53;100719.88;;;5.46;74.15
77171;BME280;66144;50.020;14.422;2023-02-12T05:30:20;100719.88;;;5.46;74.46
77171;BME280;66144;50.020;14.422;2023-02-12T05:32:46;100722.00;;;5.34;74.93
77171;BME280;66144;50.020;14.422;2023-02-12T05:35:11;100725.38;;;5.43;74.33
77171;BME280;66144;50.020;14.422;2023-02-12T05:37:36;100719.25;;;5.36;75.12
77171;BME280;66144;50.020;14.422;2023-02-12T05:40:05;100742.41;;;5.37;74.77
77171;BME280;66144;50.020;14.422;2023-02-12T05:42:31;100742.41;;;5.37;74.87
77171;BME280;66144;50.020;14.422;2023-02-12T05:44:56;100738.03;;;5.38;74.58
77171;BME280;66144;50.020;14.422;2023-02-12T05:47:22;100738.19;;;5.36;75.15
77171;BME280;66144;50.020;14.422;2023-02-12T05:49:47;100745.00;;;5.29;75.00
77171;BME280;66144;50.020;14.422;2023-02-12T05:52:12;100746.94;;;5.35;74.82
77171;BME280;66144;50.020;14.422;2023-02-12T05:54:37;100754.72;;;5.35;74.63
77171;BME280;66144;50.020;14.422;2023-02-12T05:57:03;100751.47;;;5.33;76.08
77171;BME280;66144;50.020;14.422;2023-02-12T05:59:28;100758.59;;;5.31;75.33
77171;BME280;66144;50.020;14.422;2023-02-12T06:01:53;100752.75;;;5.29;74.81
77171;BME280;66144;50.020;14.422;2023-02-12T06:04:23;100747.75;;;5.28;74.75
77171;BME280;66144;50.020;14.422;2023-02-12T06:06:50;100753.56;;;5.21;74.43
77171;BME280;66144;50.020;14.422;2023-02-12T06:09:16;100754.72;;;5.19;75.53
77171;BME280;66144;50.020;14.422;2023-02-12T06:11:41;100768.47;;;5.11;75.01
77171;BME280;66144;50.020;14.422;2023-02-12T06:14:10;100766.34;;;5.07;75.40
77171;BME280;66144;50.020;14.422;2023-02-12T06:16:37;100769.09;;;5.05;75.81
77171;BME280;66144;50.020;14.422;2023-02-12T06:19:03;100765.69;;;4.89;76.09
77171;BME280;66144;50.020;14.422;2023-02-12T06:21:29;100776.38;;;4.94;75.53
77171;BME280;66144;50.020;14.422;2023-02-12T06:23:55;100781.88;;;4.91;75.65
77171;BME280;66144;50.020;14.422;2023-02-12T06:26:21;100781.53;;;4.85;75.93
77171;BME280;66144;50.020;14.422;2023-02-12T06:28:47;100780.88;;;4.83;75.99
77171;BME280;66144;50.020;14.422;2023-02-12T06:31:16;100785.91;;;4.85;76.15
77171;BME280;66144;50.020;14.422;2023-02-12T06:33:41;100783.81;;;4.80;75.72
77171;BME280;66144;50.020;14.422;2023-02-12T06:36:06;100787.19;;;4.73;75.46
77171;BME280;66144;50.020;14.422;2023-02-12T06:38:33;100793.16;;;4.81;75.26
77171;BME280;66144;50.020;14.422;2023-02-12T06:41:01;100793.16;;;4.81;76.00
77171;BME280;66144;50.020;14.422;2023-02-12T06:43:26;100804.97;;;4.76;76.29
77171;BME280;66144;50.020;14.422;2023-02-12T06:45:51;100803.69;;;4.80;76.45
77171;BME280;66144;50.020;14.422;2023-02-12T06:48:17;100806.59;;;4.85;75.94
77171;BME280;66144;50.020;14.422;2023-02-12T06:50:42;100820.19;;;4.87;75.67
77171;BME280;66144;50.020;14.422;2023-02-12T06:53:07;100809.53;;;4.90;76.03
77171;BME280;66144;50.020;14.422;2023-02-12T06:55:33;100817.81;;;4.94;76.13
77171;BME280;66144;50.020;14.422;2023-02-12T06:57:59;100816.84;;;4.95;76.16
77171;BME280;66144;50.020;14.422;2023-02-12T07:00:24;100819.28;;;4.96;75.78
77171;BME280;66144;50.020;14.422;2023-02-12T07:02:54;100815.56;;;5.07;75.87
77171;BME280;66144;50.020;14.422;2023-02-12T07:05:20;100816.69;;;5.12;76.17
77171;BME280;66144;50.020;14.422;2023-02-12T07:07:46;100819.78;;;5.24;76.00
77171;BME280;66144;50.020;14.422;2023-02-12T07:10:11;100819.31;;;5.37;76.25
77171;BME280;66144;50.020;14.422;2023-02-12T07:12:36;100829.19;;;5.49;76.42
77171;BME280;66144;50.020;14.422;2023-02-12T07:15:02;100827.88;;;5.62;75.26
77171;BME280;66144;50.020;14.422;2023-02-12T07:17:29;100833.06;;;5.78;74.66
77171;BME280;66144;50.020;14.422;2023-02-12T07:19:55;100822.84;;;5.84;74.61
77171;BME280;66144;50.020;14.422;2023-02-12T07:22:20;100839.25;;;5.93;74.80
77171;BME280;66144;50.020;14.422;2023-02-12T07:24:46;100840.03;;;6.02;74.55
77171;BME280;66144;50.020;14.422;2023-02-12T07:27:12;100834.53;;;6.05;74.55
77171;BME280;66144;50.020;14.422;2023-02-12T07:29:37;100844.91;;;6.05;73.80
77171;BME280;66144;50.020;14.422;2023-02-12T07:32:03;100842.78;;;6.08;73.73
77171;BME280;66144;50.020;14.422;2023-02-12T07:34:28;100851.19;;;6.18;73.92
77171;BME280;66144;50.020;14.422;2023-02-12T07:36:53;100844.38;;;6.17;73.63
77171;BME280;66144;50.020;14.422;2023-02-12T07:39:19;100840.47;;;6.21;73.35
77171;BME280;66144;50.020;14.422;2023-02-12T07:41:44;100840.13;;;6.33;73.26
77171;BME280;66144;50.020;14.422;2023-02-12T07:44:10;100850.81;;;6.38;73.08
77171;BME280;66144;50.020;14.422;2023-02-12T07:46:39;100851.66;;;6.30;72.81
77171;BME280;66144;50.020;14.422;2023-02-12T07:49:06;100848.22;;;6.38;72.49
77171;BME280;66144;50.020;14.422;2023-02-12T07:51:35;100853.06;;;6.41;72.15
77171;BME280;66144;50.020;14.422;2023-02-12T07:54:01;100852.91;;;6.42;72.74
77171;BME280;66144;50.020;14.422;2023-02-12T07:56:30;100861.00;;;6.47;72.23
77171;BME280;66144;50.020;14.422;2023-02-12T07:58:58;100862.47;;;6.42;72.31
77171;BME280;66144;50.020;14.422;2023-02-12T08:01:30;100854.19;;;6.46;72.59
77171;BME280;66144;50.020;14.422;2023-02-12T08:04:01;100860.84;;;6.49;72.31
77171;BME280;66144;50.020;14.422;2023-02-12T08:06:29;100859.53;;;6.53;72.20
77171;BME280;66144;50.020;14.422;2023-02-12T08:08:57;100862.47;;;6.50;71.90
77171;BME280;66144;50.020;14.422;2023-02-12T08:11:24;100872.38;;;6.38;72.69
77171;BME280;66144;50.020;14.422;2023-02-12T08:13:50;100872.19;;;6.48;72.44
77171;BME280;66144;50.020;14.422;2023-02-12T08:16:16;100874.75;;;6.56;72.53
77171;BME280;66144;50.020;14.422;2023-02-12T08:18:42;100881.72;;;6.55;72.08
77171;BME280;66144;50.020;14.422;2023-02-12T08:21:11;100873.66;;;6.50;72.44
77171;BME280;66144;50.020;14.422;2023-02-12T08:23:37;100886.47;;;6.52;72.65
77171;BME280;66144;50.020;14.422;2023-02-12T08:26:33;100888.38;;;6.58;72.25
77171;BME280;66144;50.020;14.422;2023-02-12T08:29:05;100881.25;;;6.60;72.59
77171;BME280;66144;50.020;14.422;2023-02-12T08:31:34;100888.38;;;6.66;72.20
77171;BME280;66144;50.020;14.422;2023-02-12T08:34:00;100888.38;;;6.66;72.25
77171;BME280;66144;50.020;14.422;2023-02-12T08:36:28;100889.81;;;6.69;72.31
77171;BME280;66144;50.020;14.422;2023-02-12T08:38:57;100880.19;;;6.77;71.95
77171;BME280;66144;50.020;14.422;2023-02-12T08:41:25;100892.53;;;6.75;71.90
77171;BME280;66144;50.020;14.422;2023-02-12T08:43:59;100894.47;;;6.81;72.23
77171;BME280;66144;50.020;14.422;2023-02-12T08:46:27;100892.34;;;6.85;71.47
77171;BME280;66144;50.020;14.422;2023-02-12T08:48:55;100893.81;;;6.87;71.47
77171;BME280;66144;50.020;14.422;2023-02-12T08:51:24;100894.72;;;6.94;71.48
77171;BME280;66144;50.020;14.422;2023-02-12T08:53:57;100897.63;;;7.00;71.22
77171;BME280;66144;50.020;14.422;2023-02-12T08:56:24;100901.50;;;7.04;70.99
77171;BME280;66144;50.020;14.422;2023-02-12T08:58:50;100900.19;;;7.08;70.77
77171;BME280;66144;50.020;14.422;2023-02-12T09:01:21;100903.13;;;7.05;71.13
77171;BME280;66144;50.020;14.422;2023-02-12T09:03:47;100908.47;;;7.11;70.84
77171;BME280;66144;50.020;14.422;2023-02-12T09:06:15;100907.94;;;7.16;70.65
77171;BME280;66144;50.020;14.422;2023-02-12T09:08:41;100903.22;;;7.19;70.60
77171;BME280;66144;50.020;14.422;2023-02-12T09:11:09;100907.44;;;7.20;70.77
77171;BME280;66144;50.020;14.422;2023-02-12T09:13:35;100914.41;;;7.20;71.26
77171;BME280;66144;50.020;14.422;2023-02-12T09:16:02;100912.94;;;7.25;71.02
77171;BME280;66144;50.020;14.422;2023-02-12T09:18:28;100920.72;;;7.25;71.13
77171;BME280;66144;50.020;14.422;2023-02-12T09:20:53;100927.38;;;7.28;70.75
77171;BME280;66144;50.020;14.422;2023-02-12T09:23:19;100930.16;;;7.26;71.24
77171;BME280;66144;50.020;14.422;2023-02-12T09:25:45;100931.28;;;7.24;70.94
77171;BME280;66144;50.020;14.422;2023-02-12T09:28:12;100926.44;;;7.21;71.24
77171;BME280;66144;50.020;14.422;2023-02-12T09:30:38;100937.31;;;7.24;70.95
77171;BME280;66144;50.020;14.422;2023-02-12T09:33:05;100940.22;;;7.21;70.97
77171;BME280;66144;50.020;14.422;2023-02-12T09:35:33;100942.16;;;7.27;71.31
77171;BME280;66144;50.020;14.422;2023-02-12T09:37:59;100932.91;;;7.25;71.16
77171;BME280;66144;50.020;14.422;2023-02-12T09:40:32;100944.44;;;7.31;70.85
77171;BME280;66144;50.020;14.422;2023-02-12T09:45:26;100944.13;;;7.25;71.25
77171;BME280;66144;50.020;14.422;2023-02-12T09:48:09;100944.69;;;7.36;71.04
77171;BME280;66144;50.020;14.422;2023-02-12T09:53:16;100944.53;;;7.37;71.17
77171;BME280;66144;50.020;14.422;2023-02-12T09:55:43;100950.03;;;7.42;70.56
77171;BME280;66144;50.020;14.422;2023-02-12T09:58:13;100947.41;;;7.50;70.38
77171;BME280;66144;50.020;14.422;2023-02-12T10:00:40;100955.97;;;7.51;70.68
77171;BME280;66144;50.020;14.422;2023-02-12T10:03:13;100965.06;;;7.55;70.31
77171;BME280;66144;50.020;14.422;2023-02-12T10:05:44;100960.34;;;7.58;70.06
77171;BME280;66144;50.020;14.422;2023-02-12T10:10:52;100956.75;;;7.59;69.84
77171;BME280;66144;50.020;14.422;2023-02-12T10:16:25;100962.91;;;7.67;70.08
77171;BME280;66144;50.020;14.422;2023-02-12T10:27:48;100969.13;;;7.80;69.93
77171;BME280;66144;50.020;14.422;2023-02-12T10:30:29;100956.28;;;7.79;69.98
77171;BME280;66144;50.020;14.422;2023-02-12T10:33:02;100962.31;;;7.79;69.25
77171;BME280;66144;50.020;14.422;2023-02-12T10:35:30;100959.88;;;7.78;69.46
77171;BME280;66144;50.020;14.422;2023-02-12T10:38:00;100952.59;;;7.73;70.30
77171;BME280;66144;50.020;14.422;2023-02-12T10:40:33;100955.16;;;7.81;70.02
77171;BME280;66144;50.020;14.422;2023-02-12T10:43:02;100954.91;;;7.91;69.78
77171;BME280;66144;50.020;14.422;2023-02-12T10:45:36;100946.91;;;7.92;69.59
77171;BME280;66144;50.020;14.422;2023-02-12T10:53:23;100934.56;;;8.09;68.68
77171;BME280;66144;50.020;14.422;2023-02-12T10:56:03;100945.56;;;8.19;68.76
77171;BME280;66144;50.020;14.422;2023-02-12T10:58:30;100937.22;;;8.24;68.45
77171;BME280;66144;50.020;14.422;2023-02-12T11:00:57;100941.53;;;8.31;68.16
77171;BME280;66144;50.020;14.422;2023-02-12T11:03:28;100949.03;;;8.35;68.05
77171;BME280;66144;50.020;14.422;2023-02-12T11:05:54;100935.78;;;8.44;67.96
77171;BME280;66144;50.020;14.422;2023-02-12T11:10:55;100938.63;;;8.35;68.07
77171;BME280;66144;50.020;14.422;2023-02-12T11:13:27;100937.75;;;8.42;67.98
77171;BME280;66144;50.020;14.422;2023-02-12T11:15:53;100934.22;;;8.50;67.77
77171;BME280;66144;50.020;14.422;2023-02-12T11:18:30;100928.78;;;8.45;67.70
77171;BME280;66144;50.020;14.422;2023-02-12T11:21:01;100935.50;;;8.54;67.46
77171;BME280;66144;50.020;14.422;2023-02-12T11:23:29;100938.00;;;8.47;67.83
77171;BME280;66144;50.020;14.422;2023-02-12T11:28:22;100930.84;;;8.64;67.43
77171;BME280;66144;50.020;14.422;2023-02-12T11:33:36;100934.25;;;8.79;66.81
77171;BME280;66144;50.020;14.422;2023-02-12T11:36:12;100936.50;;;8.82;66.80
77171;BME280;66144;50.020;14.422;2023-02-12T11:38:51;100924.53;;;9.03;66.60
77171;BME280;66144;50.020;14.422;2023-02-12T11:41:33;100931.59;;;9.23;65.61
77171;BME280;66144;50.020;14.422;2023-02-12T11:44:17;100930.91;;;9.36;65.35
77171;BME280;66144;50.020;14.422;2023-02-12T11:46:53;100933.03;;;9.47;64.82
77171;BME280;66144;50.020;14.422;2023-02-12T11:49:30;100928.06;;;9.52;64.43
77171;BME280;66144;50.020;14.422;2023-02-12T11:51:57;100926.97;;;9.61;64.81
77171;BME280;66144;50.020;14.422;2023-02-12T11:54:26;100927.56;;;9.63;64.28
77171;BME280;66144;50.020;14.422;2023-02-12T11:56:53;100930.78;;;9.65;64.30
77171;BME280;66144;50.020;14.422;2023-02-12T12:02:00;100924.75;;;9.65;63.96
77171;BME280;66144;50.020;14.422;2023-02-12T12:04:32;100928.19;;;9.65;64.06
77171;BME280;66144;50.020;14.422;2023-02-12T12:07:10;100926.97;;;9.61;63.58
77171;BME280;66144;50.020;14.422;2023-02-12T12:09:47;100926.16;;;9.61;64.14
77171;BME280;66144;50.020;14.422;2023-02-12T12:18:20;100928.63;;;9.48;64.25
77171;BME280;66144;50.020;14.422;2023-02-12T12:21:33;100930.41;;;9.47;63.95
77171;BME280;66144;50.020;14.422;2023-02-12T12:24:19;100928.00;;;9.46;64.52
77171;BME280;66144;50.020;14.422;2023-02-12T12:26:49;100926.13;;;9.40;64.52
77171;BME280;66144;50.020;14.422;2023-02-12T12:29:49;100922.56;;;9.26;64.24
77171;BME280;66144;50.020;14.422;2023-02-12T12:32:17;100923.19;;;9.28;64.89
77171;BME280;66144;50.020;14.422;2023-02-12T12:34:43;100920.75;;;9.26;64.67
77171;BME280;66144;50.020;14.422;2023-02-12T12:45:36;100907.56;;;9.49;63.89
77171;BME280;66144;50.020;14.422;2023-02-12T12:56:15;100907.25;;;9.38;63.77
77171;BME280;66144;50.020;14.422;2023-02-12T13:04:41;100897.31;;;9.48;63.39
77171;BME280;66144;50.020;14.422;2023-02-12T13:15:32;100907.13;;;9.46;64.17
77171;BME280;66144;50.020;14.422;2023-02-12T13:18:11;100896.28;;;9.42;64.27
77171;BME280;66144;50.020;14.422;2023-02-12T13:28:45;100902.59;;;9.54;63.77
77171;BME280;66144;50.020;14.422;2023-02-12T13:31:15;100899.56;;;9.51;63.95
77171;BME280;66144;50.020;14.422;2023-02-12T13:33:47;100903.53;;;9.47;64.46
77171;BME280;66144;50.020;14.422;2023-02-12T13:36:16;100901.78;;;9.54;64.10
77171;BME280;66144;50.020;14.422;2023-02-12T13:39:08;100909.00;;;9.52;63.47
77171;BME280;66144;50.020;14.422;2023-02-12T13:41:38;100906.56;;;9.50;63.62
77171;BME280;66144;50.020;14.422;2023-02-12T13:44:18;100903.97;;;9.50;64.08
77171;BME280;66144;50.020;14.422;2023-02-12T13:47:02;100895.69;;;9.47;63.29
77171;BME280;66144;50.020;14.422;2023-02-12T13:49:53;100896.50;;;9.47;63.53
77171;BME280;66144;50.020;14.422;2023-02-12T13:53:02;100895.88;;;9.45;63.50
77171;BME280;66144;50.020;14.422;2023-02-12T13:55:28;100894.53;;;9.49;63.51
77171;BME280;66144;50.020;14.422;2023-02-12T14:01:01;100901.78;;;9.54;63.87
77171;BME280;66144;50.020;14.422;2023-02-12T14:03:29;100892.34;;;9.53;62.60
77171;BME280;66144;50.020;14.422;2023-02-12T14:06:18;100889.19;;;9.57;62.71
77171;BME280;66144;50.020;14.422;2023-02-12T14:08:50;100888.38;;;9.57;62.57
77171;BME280;66144;50.020;14.422;2023-02-12T14:11:20;100890.56;;;9.53;61.79
77171;BME280;66144;50.020;14.422;2023-02-12T14:14:02;100893.59;;;9.57;62.04
77171;BME280;66144;50.020;14.422;2023-02-12T14:22:05;100892.59;;;9.58;62.12
77171;BME280;66144;50.020;14.422;2023-02-12T14:27:05;100889.63;;;9.61;61.75
77171;BME280;66144;50.020;14.422;2023-02-12T14:29:39;100898.44;;;9.60;61.38
77171;BME280;66144;50.020;14.422;2023-02-12T14:33:38;100894.59;;;9.56;60.84
77171;BME280;66144;50.020;14.422;2023-02-12T14:35:45;100893.78;;;9.55;60.96
77171;BME280;66144;50.020;14.422;2023-02-12T14:40:40;100891.97;;;9.56;60.74
77171;BME280;66144;50.020;14.422;2023-02-12T14:45:49;100893.59;;;9.57;61.04
77171;BME280;66144;50.020;14.422;2023-02-12T14:48:44;100895.41;;;9.56;60.94
77171;BME280;66144;50.020;14.422;2023-02-12T14:51:26;100896.66;;;9.60;60.91
77171;BME280;66144;50.020;14.422;2023-02-12T14:53:57;100897.19;;;9.56;61.01
77171;BME280;66144;50.020;14.422;2023-02-12T14:56:23;100908.44;;;9.56;61.28
77171;BME280;66144;50.020;14.422;2023-02-12T14:58:51;100901.63;;;9.55;61.07
77171;BME280;66144;50.020;14.422;2023-02-12T15:01:29;100896.84;;;9.59;60.76
77171;BME280;66144;50.020;14.422;2023-02-12T15:03:56;100895.78;;;9.53;61.06
77171;BME280;66144;50.020;14.422;2023-02-12T15:06:48;100899.63;;;9.57;61.65
77171;BME280;66144;50.020;14.422;2023-02-12T15:09:29;100896.13;;;9.50;61.84
77171;BME280;66144;50.020;14.422;2023-02-12T15:12:11;100901.16;;;9.52;62.34
77171;BME280;66144;50.020;14.422;2023-02-12T15:14:46;100901.72;;;9.47;61.96
77171;BME280;66144;50.020;14.422;2023-02-12T15:17:20;100903.53;;;9.47;62.23
77171;BME280;66144;50.020;14.422;2023-02-12T15:20:01;100911.34;;;9.47;62.83
77171;BME280;66144;50.020;14.422;2023-02-12T15:22:40;100907.31;;;9.44;63.05